createdAt,value
2018-05-21T00:00:42.112Z,0
2018-05-21T00:01:42.138Z,0
2018-05-21T00:02:42.360Z,0
2018-05-21T00:03:42.375Z,0
2018-05-21T00:04:41.560Z,0
2018-05-21T00:05:42.381Z,0
2018-05-21T00:06:42.376Z,0
2018-05-21T00:07:42.100Z,0
2018-05-21T00:08:42.623Z,0
2018-05-21T00:09:42.357Z,0
2018-05-21T00:10:42.339Z,0
2018-05-21T00:11:42.413Z,0
2018-05-21T00:12:42.360Z,0
2018-05-21T00:13:41.830Z,0
2018-05-21T00:14:42.333Z,0
2018-05-21T00:15:42.336Z,0
2018-05-21T00:16:42.785Z,0
2018-05-21T00:17:42.085Z,0
2018-05-21T00:18:42.089Z,0
2018-05-21T00:19:42.601Z,0
2018-05-21T00:20:41.828Z,0
2018-05-21T00:21:42.066Z,0
2018-05-21T00:22:41.565Z,0
2018-05-21T00:23:42.340Z,0
2018-05-21T00:24:41.807Z,0
2018-05-21T00:25:42.076Z,0
2018-05-21T00:26:42.158Z,0
2018-05-21T00:27:42.598Z,0
2018-05-21T00:28:42.613Z,0
2018-05-21T00:29:42.592Z,0
2018-05-21T00:30:42.345Z,0
2018-05-21T00:31:42.074Z,0
2018-05-21T00:32:42.411Z,0
2018-05-21T00:33:42.339Z,0
2018-05-21T00:34:41.811Z,0
2018-05-21T00:35:42.079Z,0
2018-05-21T00:36:42.071Z,0
2018-05-21T00:37:41.801Z,0
2018-05-21T00:38:42.332Z,0
2018-05-21T00:39:42.330Z,0
2018-05-21T00:40:42.062Z,0
2018-05-21T00:41:42.121Z,0
2018-05-21T00:42:41.820Z,0
2018-05-21T00:43:42.055Z,0
2018-05-21T00:44:42.335Z,0
2018-05-21T00:45:51.003Z,0
2018-05-21T00:46:42.403Z,0
2018-05-21T00:47:42.586Z,0
2018-05-21T00:48:42.120Z,0
2018-05-21T00:49:42.074Z,0
2018-05-21T00:50:42.586Z,0
2018-05-21T00:51:42.053Z,0
2018-05-21T00:52:42.349Z,0
2018-05-21T00:53:42.329Z,0
2018-05-21T00:54:42.054Z,0
2018-05-21T00:55:42.329Z,0
2018-05-21T00:56:42.182Z,0
2018-05-21T00:57:42.408Z,0
2018-05-21T00:58:42.327Z,0
2018-05-21T00:59:42.307Z,0
2018-05-21T01:00:42.348Z,0
2018-05-21T01:01:42.315Z,0
2018-05-21T01:02:42.061Z,0
2018-05-21T01:03:42.063Z,0
2018-05-21T01:04:42.345Z,0
2018-05-21T01:05:42.321Z,0
2018-05-21T01:06:41.825Z,0
2018-05-21T01:07:41.794Z,0
2018-05-21T01:08:42.084Z,0
2018-05-21T01:09:42.062Z,0
2018-05-21T01:10:42.335Z,0
2018-05-21T01:11:42.359Z,0
2018-05-21T01:12:41.522Z,0
2018-05-21T01:13:42.579Z,0
2018-05-21T01:14:42.044Z,0
2018-05-21T01:15:42.469Z,0
2018-05-21T01:16:42.038Z,0
2018-05-21T01:17:42.317Z,0
2018-05-21T01:18:42.076Z,0
2018-05-21T01:19:42.042Z,0
2018-05-21T01:20:42.309Z,0
2018-05-21T01:21:42.041Z,0
2018-05-21T01:22:42.038Z,0
2018-05-21T01:23:42.291Z,0
2018-05-21T01:24:42.026Z,0
2018-05-21T01:25:42.052Z,0
2018-05-21T01:26:42.076Z,0
2018-05-21T01:27:42.544Z,0
2018-05-21T01:28:41.778Z,0
2018-05-21T01:29:42.297Z,0
2018-05-21T01:30:42.037Z,0
2018-05-21T01:31:42.555Z,0
2018-05-21T01:32:42.018Z,0
2018-05-21T01:33:41.758Z,0
2018-05-21T01:34:41.770Z,0
2018-05-21T01:35:42.551Z,0
2018-05-21T01:36:42.023Z,0
2018-05-21T01:37:42.554Z,0
2018-05-21T01:38:41.498Z,0
2018-05-21T01:39:41.758Z,0
2018-05-21T01:40:42.099Z,0
2018-05-21T01:41:42.555Z,0
2018-05-21T01:42:42.297Z,0
2018-05-21T01:43:42.288Z,0
2018-05-21T01:44:42.027Z,0
2018-05-21T01:45:42.557Z,0
2018-05-21T01:46:42.270Z,0
2018-05-21T01:47:42.034Z,0
2018-05-21T01:48:42.315Z,0
2018-05-21T01:49:42.027Z,0
2018-05-21T01:50:42.002Z,0
2018-05-21T01:51:42.418Z,0
2018-05-21T01:52:42.287Z,0
2018-05-21T01:53:42.277Z,0
2018-05-21T01:54:42.524Z,0
2018-05-21T01:55:42.306Z,0
2018-05-21T01:56:42.061Z,0
2018-05-21T01:57:42.252Z,0
2018-05-21T01:58:41.995Z,0
2018-05-21T01:59:42.312Z,0
2018-05-21T02:00:42.536Z,0
2018-05-21T02:01:42.254Z,0
2018-05-21T02:02:42.252Z,0
2018-05-21T02:03:42.560Z,0
2018-05-21T02:04:41.998Z,0
2018-05-21T02:05:42.261Z,0
2018-05-21T02:06:42.560Z,0
2018-05-21T02:07:42.271Z,0
2018-05-21T02:08:43.017Z,0
2018-05-21T02:09:42.253Z,0
2018-05-21T02:10:41.984Z,0
2018-05-21T02:11:42.299Z,0
2018-05-21T02:12:42.513Z,0
2018-05-21T02:13:41.720Z,0
2018-05-21T02:14:42.262Z,0
2018-05-21T02:15:42.021Z,0
2018-05-21T02:16:41.973Z,0
2018-05-21T02:17:42.234Z,0
2018-05-21T02:18:42.509Z,0
2018-05-21T02:19:42.252Z,0
2018-05-21T02:20:42.505Z,0
2018-05-21T02:21:42.488Z,0
2018-05-21T02:22:42.224Z,0
2018-05-21T02:23:42.246Z,0
2018-05-21T02:24:41.692Z,0
2018-05-21T02:25:42.503Z,0
2018-05-21T02:26:42.479Z,0
2018-05-21T02:27:41.956Z,0
2018-05-21T02:28:42.467Z,0
2018-05-21T02:29:42.214Z,0
2018-05-21T02:30:42.487Z,0
2018-05-21T02:31:41.963Z,0
2018-05-21T02:32:42.210Z,0
2018-05-21T02:33:42.213Z,0
2018-05-21T02:34:42.210Z,0
2018-05-21T02:35:42.216Z,0
2018-05-21T02:36:42.536Z,0
2018-05-21T02:37:42.240Z,0
2018-05-21T02:38:42.213Z,0
2018-05-21T02:39:41.969Z,0
2018-05-21T02:40:42.210Z,0
2018-05-21T02:41:41.738Z,0
2018-05-21T02:42:42.453Z,0
2018-05-21T02:43:42.203Z,0
2018-05-21T02:44:42.462Z,0
2018-05-21T02:45:42.088Z,0
2018-05-21T02:46:42.437Z,0
2018-05-21T02:47:41.917Z,0
2018-05-21T02:48:42.504Z,0
2018-05-21T02:49:41.947Z,0
2018-05-21T02:50:42.194Z,0
2018-05-21T02:51:42.184Z,0
2018-05-21T02:52:41.926Z,0
2018-05-21T02:53:42.192Z,0
2018-05-21T02:54:42.184Z,0
2018-05-21T02:55:42.445Z,0
2018-05-21T02:56:41.662Z,0
2018-05-21T02:57:42.186Z,0
2018-05-21T02:58:41.921Z,0
2018-05-21T02:59:42.442Z,0
2018-05-21T03:00:42.185Z,0
2018-05-21T03:01:41.907Z,0
2018-05-21T03:02:42.185Z,0
2018-05-21T03:03:42.437Z,0
2018-05-21T03:04:42.433Z,0
2018-05-21T03:05:42.166Z,0
2018-05-21T03:06:42.165Z,0
2018-05-21T03:07:42.188Z,0
2018-05-21T03:08:41.902Z,0
2018-05-21T03:09:41.890Z,0
2018-05-21T03:10:41.915Z,0
2018-05-21T03:11:42.212Z,0
2018-05-21T03:12:41.961Z,0
2018-05-21T03:13:42.454Z,0
2018-05-21T03:14:41.641Z,0
2018-05-21T03:15:41.883Z,0
2018-05-21T03:16:42.144Z,0
2018-05-21T03:17:42.140Z,0
2018-05-21T03:18:42.407Z,0
2018-05-21T03:19:41.915Z,0
2018-05-21T03:20:42.151Z,0
2018-05-21T03:21:41.644Z,0
2018-05-21T03:22:42.153Z,0
2018-05-21T03:23:41.888Z,0
2018-05-21T03:24:42.413Z,0
2018-05-21T03:25:42.138Z,0
2018-05-21T03:26:42.398Z,5
2018-05-21T03:27:42.145Z,5
2018-05-21T03:28:41.870Z,5
2018-05-21T03:29:42.386Z,5
2018-05-21T03:30:42.147Z,5
2018-05-21T03:31:41.996Z,5
2018-05-21T03:32:42.369Z,10
2018-05-21T03:33:42.117Z,10
2018-05-21T03:34:41.400Z,10
2018-05-21T03:35:41.857Z,10
2018-05-21T03:36:42.144Z,10
2018-05-21T03:37:42.122Z,15
2018-05-21T03:38:42.126Z,15
2018-05-21T03:39:42.122Z,15
2018-05-21T03:40:42.119Z,15
2018-05-21T03:41:41.912Z,20
2018-05-21T03:42:42.192Z,20
2018-05-21T03:43:42.122Z,20
2018-05-21T03:44:41.597Z,20
2018-05-21T03:45:41.585Z,25
2018-05-21T03:46:41.843Z,25
2018-05-21T03:47:42.120Z,25
2018-05-21T03:48:42.125Z,25
2018-05-21T03:49:42.335Z,25
2018-05-21T03:50:42.358Z,30
2018-05-21T03:51:42.112Z,30
2018-05-21T03:52:42.092Z,30
2018-05-21T03:53:41.826Z,30
2018-05-21T03:54:42.091Z,35
2018-05-21T03:55:41.816Z,35
2018-05-21T03:56:42.101Z,35
2018-05-21T03:57:42.124Z,35
2018-05-21T03:58:41.820Z,35
2018-05-21T03:59:41.816Z,40
2018-05-21T04:00:42.060Z,40
2018-05-21T04:01:42.064Z,45
2018-05-21T04:02:42.065Z,45
2018-05-21T04:03:41.805Z,50
2018-05-21T04:04:42.621Z,65
2018-05-21T04:05:42.318Z,70
2018-05-21T04:06:41.812Z,90
2018-05-21T04:07:41.810Z,105
2018-05-21T04:08:42.319Z,110
2018-05-21T04:09:41.584Z,105
2018-05-21T04:10:42.068Z,80
2018-05-21T04:11:41.816Z,110
2018-05-21T04:12:41.680Z,120
2018-05-21T04:13:42.315Z,130
2018-05-21T04:14:41.528Z,135
2018-05-21T04:15:41.798Z,145
2018-05-21T04:16:42.078Z,165
2018-05-21T04:17:42.059Z,155
2018-05-21T04:18:41.908Z,160
2018-05-21T04:19:41.796Z,160
2018-05-21T04:20:42.383Z,160
2018-05-21T04:21:41.788Z,170
2018-05-21T04:22:42.057Z,165
2018-05-21T04:23:42.084Z,170
2018-05-21T04:24:41.799Z,175
2018-05-21T04:25:42.706Z,180
2018-05-21T04:26:42.053Z,180
2018-05-21T04:27:41.321Z,185
2018-05-21T04:28:42.062Z,190
2018-05-21T04:29:41.794Z,195
2018-05-21T04:30:41.823Z,200
2018-05-21T04:31:42.398Z,205
2018-05-21T04:32:41.813Z,215
2018-05-21T04:33:42.109Z,210
2018-05-21T04:34:41.828Z,215
2018-05-21T04:35:41.807Z,220
2018-05-21T04:36:42.086Z,225
2018-05-21T04:37:41.833Z,230
2018-05-21T04:38:42.128Z,225
2018-05-21T04:39:42.098Z,230
2018-05-21T04:40:41.887Z,225
2018-05-21T04:41:42.117Z,215
2018-05-21T04:42:42.138Z,180
2018-05-21T04:43:41.840Z,150
2018-05-21T04:44:42.107Z,135
2018-05-21T04:45:42.353Z,130
2018-05-21T04:46:42.110Z,255
2018-05-21T04:47:42.120Z,145
2018-05-21T04:48:42.120Z,130
2018-05-21T04:49:42.141Z,130
2018-05-21T04:50:42.117Z,130
2018-05-21T04:51:41.875Z,130
2018-05-21T04:52:42.118Z,130
2018-05-21T04:53:41.955Z,135
2018-05-21T04:54:42.145Z,135
2018-05-21T04:55:42.407Z,135
2018-05-21T04:56:41.904Z,140
2018-05-21T04:57:41.624Z,140
2018-05-21T04:58:42.419Z,145
2018-05-21T04:59:41.891Z,150
2018-05-21T05:00:41.887Z,155
2018-05-21T05:01:42.142Z,160
2018-05-21T05:02:41.889Z,160
2018-05-21T05:03:41.630Z,170
2018-05-21T05:04:42.002Z,180
2018-05-21T05:05:42.183Z,200
2018-05-21T05:06:41.699Z,220
2018-05-21T05:07:42.156Z,230
2018-05-21T05:08:42.455Z,240
2018-05-21T05:09:42.454Z,240
2018-05-21T05:10:41.917Z,245
2018-05-21T05:11:41.916Z,225
2018-05-21T05:12:41.967Z,185
2018-05-21T05:13:42.206Z,160
2018-05-21T05:14:41.897Z,155
2018-05-21T05:15:41.932Z,150
2018-05-21T05:16:41.645Z,145
2018-05-21T05:17:42.207Z,340
2018-05-21T05:18:42.229Z,340
2018-05-21T05:19:42.189Z,150
2018-05-21T05:20:41.930Z,150
2018-05-21T05:21:41.445Z,150
2018-05-21T05:22:41.931Z,155
2018-05-21T05:23:41.677Z,155
2018-05-21T05:24:42.455Z,155
2018-05-21T05:25:42.561Z,155
2018-05-21T05:26:41.905Z,155
2018-05-21T05:27:42.237Z,155
2018-05-21T05:28:41.961Z,355
2018-05-21T05:29:42.219Z,385
2018-05-21T05:30:41.960Z,365
2018-05-21T05:31:42.247Z,365
2018-05-21T05:32:42.487Z,375
2018-05-21T05:33:42.251Z,380
2018-05-21T05:34:41.727Z,380
2018-05-21T05:35:41.707Z,385
2018-05-21T05:36:41.997Z,385
2018-05-21T05:37:42.542Z,390
2018-05-21T05:38:42.351Z,395
2018-05-21T05:39:42.000Z,400
2018-05-21T05:40:42.272Z,385
2018-05-21T05:41:41.725Z,380
2018-05-21T05:42:42.051Z,385
2018-05-21T05:43:42.495Z,390
2018-05-21T05:44:41.980Z,400
2018-05-21T05:45:42.298Z,410
2018-05-21T05:46:42.091Z,405
2018-05-21T05:47:41.768Z,410
2018-05-21T05:48:41.780Z,410
2018-05-21T05:49:42.559Z,415
2018-05-21T05:50:42.297Z,415
2018-05-21T05:51:42.627Z,415
2018-05-21T05:52:42.356Z,425
2018-05-21T05:53:42.048Z,420
2018-05-21T05:54:42.569Z,420
2018-05-21T05:55:42.062Z,420
2018-05-21T05:56:42.326Z,420
2018-05-21T05:57:42.921Z,420
2018-05-21T05:58:42.615Z,415
2018-05-21T05:59:42.404Z,415
2018-05-21T06:00:41.841Z,425
2018-05-21T06:01:42.370Z,420
2018-05-21T06:02:42.389Z,415
2018-05-21T06:03:43.340Z,415
2018-05-21T06:04:41.869Z,405
2018-05-21T06:05:42.418Z,400
2018-05-21T06:06:42.152Z,400
2018-05-21T06:07:42.413Z,395
2018-05-21T06:08:42.421Z,390
2018-05-21T06:09:42.438Z,385
2018-05-21T06:10:42.705Z,355
2018-05-21T06:11:42.173Z,340
2018-05-21T06:12:42.236Z,310
2018-05-21T06:13:42.655Z,375
2018-05-21T06:23:44.224Z,405
2018-05-21T06:24:44.455Z,405
2018-05-21T06:25:44.730Z,400
2018-05-21T06:26:44.504Z,385
2018-05-21T06:27:44.740Z,390
2018-05-21T06:28:44.534Z,390
2018-05-21T06:29:44.225Z,395
2018-05-21T06:30:44.790Z,395
2018-05-21T06:31:44.241Z,395
2018-05-21T06:32:44.528Z,395
2018-05-21T06:33:44.574Z,405
2018-05-21T06:34:44.553Z,400
2018-05-21T06:35:44.793Z,405
2018-05-21T06:36:44.280Z,405
2018-05-21T06:37:44.294Z,410
2018-05-21T06:38:44.289Z,410
2018-05-21T06:39:44.305Z,415
2018-05-21T06:40:44.068Z,415
2018-05-21T06:41:44.300Z,415
2018-05-21T06:42:44.070Z,415
2018-05-21T06:43:44.900Z,420
2018-05-21T06:44:44.352Z,415
2018-05-21T06:45:44.336Z,420
2018-05-21T06:46:44.380Z,420
2018-05-21T06:47:44.520Z,420
2018-05-21T06:48:44.656Z,425
2018-05-21T06:49:44.926Z,405
2018-05-21T06:50:44.402Z,400
2018-05-21T06:51:44.107Z,425
2018-05-21T06:52:44.944Z,430
2018-05-21T06:53:44.399Z,435
2018-05-21T06:54:44.683Z,435
2018-05-21T06:55:44.943Z,435
2018-05-21T06:56:44.685Z,430
2018-05-21T06:57:44.465Z,430
2018-05-21T06:58:44.514Z,430
2018-05-21T06:59:44.497Z,430
2018-05-21T07:00:44.466Z,430
2018-05-21T07:01:44.466Z,430
2018-05-21T07:02:44.473Z,400
2018-05-21T07:03:44.195Z,415
2018-05-21T07:04:44.216Z,415
2018-05-21T07:05:44.791Z,365
2018-05-21T07:06:44.521Z,370
2018-05-21T07:07:44.262Z,380
2018-05-21T07:08:45.040Z,375
2018-05-21T07:09:44.809Z,365
2018-05-21T07:10:44.543Z,375
2018-05-21T07:11:44.819Z,425
2018-05-21T07:12:44.572Z,370
2018-05-21T07:13:45.101Z,370
2018-05-21T07:14:44.577Z,390
2018-05-21T07:15:44.577Z,395
2018-05-21T07:16:44.309Z,385
2018-05-21T07:17:44.847Z,375
2018-05-21T07:18:45.638Z,380
2018-05-21T07:19:44.845Z,395
2018-05-21T07:20:44.859Z,400
2018-05-21T07:21:44.332Z,380
2018-05-21T07:22:45.134Z,400
2018-05-21T07:23:44.626Z,395
2018-05-21T07:24:44.873Z,395
2018-05-21T07:25:44.640Z,395
2018-05-21T07:26:44.374Z,400
2018-05-21T07:27:44.917Z,405
2018-05-21T07:28:45.225Z,405
2018-05-21T07:29:44.658Z,400
2018-05-21T07:30:44.929Z,395
2018-05-21T07:31:45.079Z,405
2018-05-21T07:32:44.923Z,410
2018-05-21T07:33:44.961Z,405
2018-05-21T07:34:44.976Z,400
2018-05-21T07:35:44.717Z,385
2018-05-21T07:36:44.452Z,380
2018-05-21T07:37:45.238Z,395
2018-05-21T07:38:44.579Z,405
2018-05-21T07:39:44.496Z,410
2018-05-21T07:40:44.982Z,410
2018-05-21T07:41:45.087Z,405
2018-05-21T07:42:44.500Z,405
2018-05-21T07:43:45.098Z,405
2018-05-21T07:44:45.410Z,405
2018-05-21T07:45:45.046Z,405
2018-05-21T07:46:45.045Z,405
2018-05-21T07:47:45.062Z,400
2018-05-21T07:48:45.062Z,390
2018-05-21T07:49:45.365Z,390
2018-05-21T07:50:44.833Z,380
2018-05-21T07:51:45.600Z,380
2018-05-21T07:52:45.155Z,375
2018-05-21T07:53:45.381Z,375
2018-05-21T07:54:44.858Z,335
2018-05-21T07:55:45.415Z,340
2018-05-21T07:56:44.884Z,350
2018-05-21T07:57:45.394Z,355
2018-05-21T07:58:45.467Z,340
2018-05-21T07:59:45.145Z,330
2018-05-21T08:00:45.156Z,380
2018-05-21T08:01:45.422Z,375
2018-05-21T08:02:44.924Z,375
2018-05-21T08:03:44.926Z,375
2018-05-21T08:04:45.441Z,375
2018-05-21T08:05:44.932Z,375
2018-05-21T08:06:45.197Z,375
2018-05-21T08:07:44.679Z,375
2018-05-21T08:08:44.955Z,370
2018-05-21T08:09:44.958Z,355
2018-05-21T08:10:45.246Z,360
2018-05-21T08:11:45.241Z,355
2018-05-21T08:12:45.253Z,360
2018-05-21T08:13:45.301Z,360
2018-05-21T08:14:45.327Z,360
2018-05-21T08:15:45.529Z,360
2018-05-21T08:16:44.750Z,350
2018-05-21T08:17:45.557Z,355
2018-05-21T08:18:45.064Z,350
2018-05-21T08:19:45.553Z,350
2018-05-21T08:20:45.062Z,350
2018-05-21T08:21:45.584Z,350
2018-05-21T08:22:45.424Z,350
2018-05-21T08:23:45.373Z,350
2018-05-21T08:24:45.343Z,350
2018-05-21T08:25:44.852Z,350
2018-05-21T08:26:45.625Z,350
2018-05-21T08:27:45.627Z,350
2018-05-21T08:28:45.193Z,350
2018-05-21T08:29:45.116Z,350
2018-05-21T08:30:44.855Z,350
2018-05-21T08:31:45.115Z,350
2018-05-21T08:32:45.404Z,350
2018-05-21T08:33:45.146Z,350
2018-05-21T08:34:45.145Z,350
2018-05-21T08:35:45.165Z,350
2018-05-21T08:36:44.972Z,345
2018-05-21T08:37:45.473Z,340
2018-05-21T08:38:45.446Z,340
2018-05-21T08:39:45.472Z,340
2018-05-21T08:40:45.465Z,335
2018-05-21T08:41:45.765Z,335
2018-05-21T08:42:46.039Z,335
2018-05-21T08:43:45.271Z,335
2018-05-21T08:44:45.773Z,335
2018-05-21T08:45:45.496Z,335
2018-05-21T08:46:45.517Z,335
2018-05-21T08:47:45.799Z,335
2018-05-21T08:48:46.144Z,335
2018-05-21T08:49:45.033Z,335
2018-05-21T08:50:45.816Z,335
2018-05-21T08:51:45.377Z,330
2018-05-21T08:52:45.301Z,330
2018-05-21T08:53:45.320Z,330
2018-05-21T08:54:45.047Z,325
2018-05-21T08:55:45.647Z,320
2018-05-21T08:56:45.990Z,315
2018-05-21T08:57:45.332Z,310
2018-05-21T08:58:45.616Z,305
2018-05-21T08:59:45.097Z,305
2018-05-21T09:00:45.621Z,305
2018-05-21T09:01:45.627Z,300
2018-05-21T09:02:45.652Z,300
2018-05-21T09:03:45.651Z,300
2018-05-21T09:04:45.859Z,300
2018-05-21T09:05:45.661Z,300
2018-05-21T09:06:45.655Z,300
2018-05-21T09:07:45.913Z,300
2018-05-21T09:08:45.407Z,300
2018-05-21T09:09:45.753Z,300
2018-05-21T09:10:45.678Z,300
2018-05-21T09:11:45.430Z,295
2018-05-21T09:12:45.687Z,295
2018-05-21T09:13:45.496Z,295
2018-05-21T09:14:45.695Z,295
2018-05-21T09:15:45.729Z,300
2018-05-21T09:16:45.910Z,300
2018-05-21T09:17:45.478Z,295
2018-05-21T09:18:45.452Z,295
2018-05-21T09:19:45.508Z,295
2018-05-21T09:20:45.748Z,300
2018-05-21T09:21:45.767Z,300
2018-05-21T09:22:46.023Z,295
2018-05-21T09:23:45.506Z,295
2018-05-21T09:24:45.840Z,295
2018-05-21T09:25:45.758Z,295
2018-05-21T09:26:45.516Z,295
2018-05-21T09:27:45.766Z,295
2018-05-21T09:28:46.893Z,305
2018-05-21T09:29:45.513Z,300
2018-05-21T09:30:45.275Z,300
2018-05-21T09:31:46.140Z,295
2018-05-21T09:32:45.798Z,295
2018-05-21T09:33:45.819Z,295
2018-05-21T09:34:45.784Z,290
2018-05-21T09:35:45.531Z,290
2018-05-21T09:36:45.924Z,290
2018-05-21T09:37:45.886Z,285
2018-05-21T09:38:45.569Z,295
2018-05-21T09:39:45.603Z,290
2018-05-21T09:40:46.145Z,290
2018-05-21T09:41:45.867Z,290
2018-05-21T09:42:46.081Z,290
2018-05-21T09:43:45.925Z,290
2018-05-21T09:44:45.617Z,290
2018-05-21T09:45:45.864Z,290
2018-05-21T09:46:45.591Z,290
2018-05-21T09:47:45.867Z,290
2018-05-21T09:48:46.447Z,290
2018-05-21T09:49:45.595Z,285
2018-05-21T09:50:46.192Z,285
2018-05-21T09:51:45.616Z,285
2018-05-21T09:52:45.641Z,285
2018-05-21T09:53:45.899Z,280
2018-05-21T09:54:45.891Z,280
2018-05-21T09:55:45.360Z,285
2018-05-21T09:56:46.162Z,280
2018-05-21T09:57:45.618Z,275
2018-05-21T09:58:46.237Z,275
2018-05-21T09:59:45.685Z,275
2018-05-21T10:00:46.174Z,270
2018-05-21T10:01:45.925Z,270
2018-05-21T10:02:45.919Z,270
2018-05-21T10:03:45.923Z,270
2018-05-21T10:04:45.656Z,265
2018-05-21T10:05:45.668Z,265
2018-05-21T10:06:45.925Z,265
2018-05-21T10:07:45.675Z,265
2018-05-21T10:08:45.423Z,260
2018-05-21T10:09:45.950Z,265
2018-05-21T10:10:45.165Z,270
2018-05-21T10:11:45.965Z,260
2018-05-21T10:12:45.950Z,260
2018-05-21T10:13:46.027Z,260
2018-05-21T10:14:45.960Z,260
2018-05-21T10:15:46.254Z,255
2018-05-21T10:16:45.980Z,255
2018-05-21T10:17:45.978Z,255
2018-05-21T10:18:45.983Z,255
2018-05-21T10:19:46.060Z,255
2018-05-21T10:20:45.734Z,255
2018-05-21T10:21:46.030Z,255
2018-05-21T10:22:46.004Z,255
2018-05-21T10:53:05.692Z,245
2018-05-21T10:54:05.106Z,240
2018-05-21T10:55:05.950Z,240
2018-05-21T10:56:06.001Z,240
2018-05-21T10:57:06.213Z,235
2018-05-21T10:58:05.950Z,240
2018-05-21T10:59:05.979Z,240
2018-05-21T11:00:05.672Z,240
2018-05-21T11:01:06.243Z,240
2018-05-21T11:02:06.733Z,240
2018-05-21T11:03:05.935Z,240
2018-05-21T11:04:05.405Z,245
2018-05-21T11:05:05.906Z,240
2018-05-21T11:06:05.938Z,240
2018-05-21T11:07:05.954Z,240
2018-05-21T11:08:05.407Z,235
2018-05-21T11:09:05.685Z,235
2018-05-21T11:10:05.421Z,240
2018-05-21T11:11:05.942Z,240
2018-05-21T11:12:06.015Z,240
2018-05-21T11:13:05.445Z,240
2018-05-21T11:14:05.684Z,240
2018-05-21T11:15:05.695Z,240
2018-05-21T11:16:05.991Z,240
2018-05-21T11:17:05.952Z,240
2018-05-21T11:18:05.819Z,240
2018-05-21T11:19:05.712Z,240
2018-05-21T11:20:06.255Z,235
2018-05-21T11:21:05.728Z,235
2018-05-21T11:22:05.709Z,235
2018-05-21T11:23:06.060Z,235
2018-05-21T11:24:05.817Z,235
2018-05-21T11:25:05.559Z,235
2018-05-21T11:26:05.778Z,235
2018-05-21T11:27:05.752Z,235
2018-05-21T11:28:05.997Z,235
2018-05-21T11:29:06.020Z,235
2018-05-21T11:30:06.028Z,235
2018-05-21T11:31:06.298Z,235
2018-05-21T11:32:06.802Z,235
2018-05-21T11:33:06.034Z,235
2018-05-21T11:34:05.772Z,235
2018-05-21T11:35:05.513Z,230
2018-05-21T11:36:05.512Z,230
2018-05-21T11:37:05.806Z,230
2018-05-21T11:38:06.092Z,230
2018-05-21T11:39:06.066Z,230
2018-05-21T11:40:05.816Z,225
2018-05-21T11:41:06.121Z,225
2018-05-21T11:42:06.069Z,230
2018-05-21T11:43:06.098Z,230
2018-05-21T11:44:06.368Z,235
2018-05-21T11:45:05.579Z,230
2018-05-21T11:46:05.635Z,230
2018-05-21T11:47:05.827Z,230
2018-05-21T11:48:05.836Z,230
2018-05-21T11:49:05.640Z,225
2018-05-21T11:50:05.916Z,225
2018-05-21T11:51:06.230Z,225
2018-05-21T11:52:05.867Z,225
2018-05-21T11:53:06.476Z,225
2018-05-21T11:54:06.141Z,225
2018-05-21T11:55:06.152Z,225
2018-05-21T11:56:06.242Z,225
2018-05-21T11:57:05.890Z,225
2018-05-21T11:58:06.171Z,220
2018-05-21T11:59:05.919Z,220
2018-05-21T12:00:06.154Z,220
2018-05-21T12:01:06.240Z,220
2018-05-21T12:02:06.404Z,220
2018-05-21T12:03:05.919Z,220
2018-05-21T12:04:06.172Z,220
2018-05-21T12:05:06.186Z,220
2018-05-21T12:06:05.940Z,220
2018-05-21T12:07:06.472Z,215
2018-05-21T12:08:05.688Z,220
2018-05-21T12:09:06.600Z,220
2018-05-21T12:10:05.953Z,220
2018-05-21T12:11:06.324Z,220
2018-05-21T12:12:05.989Z,215
2018-05-21T12:13:06.231Z,215
2018-05-21T12:14:05.721Z,215
2018-05-21T12:15:05.708Z,215
2018-05-21T12:16:06.588Z,215
2018-05-21T12:17:06.233Z,215
2018-05-21T12:18:06.001Z,220
2018-05-21T12:19:06.291Z,215
2018-05-21T12:20:06.004Z,215
2018-05-21T12:21:06.533Z,215
2018-05-21T12:22:06.001Z,215
2018-05-21T12:23:06.016Z,215
2018-05-21T12:24:06.607Z,215
2018-05-21T12:25:06.572Z,215
2018-05-21T12:26:06.366Z,215
2018-05-21T12:27:06.056Z,215
2018-05-21T12:28:06.194Z,210
2018-05-21T12:29:05.843Z,210
2018-05-21T12:30:06.101Z,210
2018-05-21T12:31:06.120Z,210
2018-05-21T12:32:06.611Z,210
2018-05-21T12:33:06.347Z,205
2018-05-21T12:34:05.804Z,205
2018-05-21T12:35:06.103Z,210
2018-05-21T12:36:06.372Z,215
2018-05-21T12:37:06.150Z,215
2018-05-21T12:38:06.205Z,215
2018-05-21T12:39:06.173Z,220
2018-05-21T12:40:06.140Z,220
2018-05-21T12:41:06.119Z,220
2018-05-21T12:42:06.105Z,215
2018-05-21T12:43:06.381Z,210
2018-05-21T12:44:06.641Z,215
2018-05-21T12:45:06.136Z,215
2018-05-21T12:46:05.868Z,220
2018-05-21T12:47:06.034Z,220
2018-05-21T12:48:06.487Z,220
2018-05-21T12:49:05.908Z,220
2018-05-21T12:50:06.189Z,225
2018-05-21T12:51:06.175Z,225
2018-05-21T12:52:06.180Z,225
2018-05-21T12:53:06.176Z,225
2018-05-21T12:54:10.503Z,225
2018-05-21T12:55:06.455Z,225
2018-05-21T12:56:05.993Z,230
2018-05-21T12:57:06.477Z,230
2018-05-21T12:58:06.500Z,230
2018-05-21T12:59:06.204Z,240
2018-05-21T13:00:06.211Z,240
2018-05-21T13:01:06.346Z,235
2018-05-21T13:02:06.244Z,235
2018-05-21T13:03:09.466Z,235
2018-05-21T13:04:07.301Z,235
2018-05-21T13:05:06.291Z,230
2018-05-21T13:06:06.029Z,235
2018-05-21T13:07:06.263Z,235
2018-05-21T13:08:06.277Z,235
2018-05-21T13:09:06.271Z,240
2018-05-21T13:10:06.006Z,240
2018-05-21T13:11:06.602Z,235
2018-05-21T13:12:06.271Z,235
2018-05-21T13:13:06.303Z,240
2018-05-21T13:14:06.219Z,240
2018-05-21T13:15:06.294Z,240
2018-05-21T13:16:06.575Z,240
2018-05-21T13:17:06.289Z,240
2018-05-21T13:18:06.569Z,240
2018-05-21T13:19:06.828Z,240
2018-05-21T13:20:06.693Z,235
2018-05-21T13:21:06.113Z,240
2018-05-21T13:22:06.451Z,240
2018-05-21T13:23:06.604Z,245
2018-05-21T13:24:07.702Z,240
2018-05-21T13:25:06.589Z,245
2018-05-21T13:26:06.152Z,250
2018-05-21T13:27:06.351Z,250
2018-05-21T13:28:06.352Z,255
2018-05-21T13:29:06.879Z,255
2018-05-21T13:30:06.424Z,260
2018-05-21T13:31:06.446Z,260
2018-05-21T13:32:06.381Z,260
2018-05-21T13:33:06.145Z,260
2018-05-21T13:34:06.168Z,255
2018-05-21T13:35:06.642Z,255
2018-05-21T13:36:06.749Z,255
2018-05-21T13:37:06.419Z,260
2018-05-21T13:38:06.440Z,265
2018-05-21T13:39:06.223Z,270
2018-05-21T13:40:06.463Z,280
2018-05-21T13:41:06.503Z,280
2018-05-21T13:42:06.460Z,285
2018-05-21T13:43:06.255Z,275
2018-05-21T13:44:05.911Z,275
2018-05-21T13:45:06.194Z,275
2018-05-21T13:46:06.565Z,280
2018-05-21T13:47:06.189Z,280
2018-05-21T13:48:06.456Z,275
2018-05-21T13:49:06.462Z,275
2018-05-21T13:50:06.474Z,275
2018-05-21T13:51:07.010Z,275
2018-05-21T13:52:06.574Z,275
2018-05-21T13:53:06.217Z,270
2018-05-21T13:54:06.482Z,270
2018-05-21T13:55:07.014Z,275
2018-05-21T13:56:06.776Z,275
2018-05-21T13:57:06.494Z,275
2018-05-21T13:58:06.776Z,270
2018-05-21T13:59:06.695Z,270
2018-05-21T14:00:06.797Z,275
2018-05-21T14:01:06.612Z,275
2018-05-21T14:02:06.823Z,275
2018-05-21T14:03:06.536Z,275
2018-05-21T14:04:06.860Z,275
2018-05-21T14:05:06.830Z,275
2018-05-21T14:06:06.809Z,275
2018-05-21T14:07:06.286Z,275
2018-05-21T14:08:06.303Z,275
2018-05-21T14:09:06.592Z,275
2018-05-21T14:10:06.882Z,280
2018-05-21T14:11:06.421Z,275
2018-05-21T14:12:06.600Z,270
2018-05-21T14:13:06.857Z,275
2018-05-21T14:14:06.843Z,270
2018-05-21T14:15:06.879Z,280
2018-05-21T14:16:06.596Z,270
2018-05-21T14:17:06.369Z,275
2018-05-21T14:18:06.951Z,275
2018-05-21T14:19:07.247Z,275
2018-05-21T14:20:06.653Z,270
2018-05-21T14:21:06.986Z,270
2018-05-21T14:22:06.923Z,270
2018-05-21T14:23:06.958Z,270
2018-05-21T14:24:06.652Z,275
2018-05-21T14:25:07.711Z,280
2018-05-21T14:26:06.511Z,285
2018-05-21T14:27:06.926Z,290
2018-05-21T14:28:06.959Z,295
2018-05-21T14:29:07.001Z,300
2018-05-21T14:30:06.706Z,305
2018-05-21T14:31:07.068Z,310
2018-05-21T14:32:07.209Z,315
2018-05-21T14:33:07.390Z,315
2018-05-21T14:34:07.214Z,320
2018-05-21T14:35:07.229Z,325
2018-05-21T14:36:07.045Z,310
2018-05-21T14:37:06.727Z,315
2018-05-21T14:38:06.799Z,315
2018-05-21T14:39:06.471Z,300
2018-05-21T14:40:06.802Z,295